Terminal Aerodrome Forecast
Issued by NWS Wilmington, OH

Current Version | Previous Version | Graphics & Text | Print | Product List | Glossary On
Versions: 1 2 3 4 5 6 7 8 9 10 11 12 13 14 15 16 17 18 19 20 21 22 23 24
000
FTUS41 KILN 232124 AAA
TAFDAY
TAF AMD
KDAY 232124Z 2321/2418 22010KT P6SM BKN040
     FM232300 20006KT P6SM VCSH BKN040
     FM240200 16006KT P6SM BKN050
     FM240700 18009KT P6SM BKN050
     FM241300 19012G22KT P6SM BKN050
     FM241500 19016G26KT P6SM BKN028=

USA.gov is the U.S. government's official web portal to all federal, state and local government web resources and services.